createdAt,value
2023-05-19T00:00:46.244Z,52.96
2023-05-19T00:01:44.509Z,53.10
2023-05-19T00:02:44.562Z,53.16
2023-05-19T00:03:44.523Z,52.91
2023-05-19T00:04:44.489Z,52.76
2023-05-19T00:05:44.523Z,52.63
2023-05-19T00:06:44.513Z,52.59
2023-05-19T00:07:44.513Z,52.85
2023-05-19T00:08:44.520Z,53.00
2023-05-19T00:09:44.525Z,52.93
2023-05-19T00:10:44.475Z,52.97
2023-05-19T00:11:44.435Z,52.81
2023-05-19T00:12:44.438Z,52.77
2023-05-19T00:13:44.433Z,53.03
2023-05-19T00:14:44.426Z,52.98
2023-05-19T00:15:44.478Z,53.02
2023-05-19T00:16:44.420Z,53.06
2023-05-19T00:17:44.411Z,53.20
2023-05-19T00:18:44.434Z,53.03
2023-05-19T00:19:44.388Z,53.45
2023-05-19T00:20:44.368Z,53.38
2023-05-19T00:21:44.408Z,53.24
2023-05-19T00:22:44.366Z,53.21
2023-05-19T00:23:44.373Z,53.08
2023-05-19T00:24:44.349Z,53.09
2023-05-19T00:25:44.371Z,53.36
2023-05-19T00:26:44.359Z,53.28
2023-05-19T00:27:44.350Z,53.15
2023-05-19T00:28:44.342Z,53.22
2023-05-19T00:29:44.323Z,53.18
2023-05-19T00:30:44.295Z,53.19
2023-05-19T00:31:44.345Z,52.96
2023-05-19T00:32:44.373Z,52.85
2023-05-19T00:33:44.287Z,52.74
2023-05-19T00:34:44.271Z,52.83
2023-05-19T00:35:44.285Z,52.75
2023-05-19T00:36:44.279Z,52.66
2023-05-19T00:37:44.251Z,52.97
2023-05-19T00:38:44.271Z,52.76
2023-05-19T00:39:44.259Z,52.88
2023-05-19T00:40:44.250Z,52.72
2023-05-19T00:41:44.237Z,52.66
2023-05-19T00:42:44.244Z,52.61
2023-05-19T00:43:44.254Z,52.65
2023-05-19T00:44:44.220Z,52.61
2023-05-19T00:45:44.219Z,52.61
2023-05-19T00:46:44.236Z,53.14
2023-05-19T00:47:44.281Z,52.85
2023-05-19T00:48:44.193Z,52.95
2023-05-19T00:49:44.171Z,52.94
2023-05-19T00:50:44.191Z,53.01
2023-05-19T00:51:44.193Z,52.99
2023-05-19T00:52:44.177Z,53.02
2023-05-19T00:53:44.145Z,53.24
2023-05-19T00:54:44.149Z,53.07
2023-05-19T00:55:44.158Z,52.99
2023-05-19T00:56:44.457Z,53.03
2023-05-19T00:57:44.124Z,53.00
2023-05-19T00:58:44.136Z,52.95
2023-05-19T00:59:44.090Z,53.10
2023-05-19T01:00:44.123Z,53.22
2023-05-19T01:01:44.149Z,53.14
2023-05-19T01:02:44.138Z,53.04
2023-05-19T01:03:44.218Z,53.17
2023-05-19T01:04:44.073Z,52.99
2023-05-19T01:05:44.084Z,53.10
2023-05-19T01:06:44.207Z,53.02
2023-05-19T01:07:44.091Z,52.94
2023-05-19T01:08:44.032Z,53.10
2023-05-19T01:09:44.050Z,53.00
2023-05-19T01:10:44.045Z,52.82
2023-05-19T01:11:44.018Z,52.88
2023-05-19T01:12:44.021Z,52.89
2023-05-19T01:13:44.251Z,53.00
2023-05-19T01:14:44.064Z,52.98
2023-05-19T01:15:44.042Z,53.13
2023-05-19T01:16:44.103Z,53.13
2023-05-19T01:17:44.011Z,53.21
2023-05-19T01:18:43.971Z,53.19
2023-05-19T01:19:43.997Z,53.23
2023-05-19T01:20:43.982Z,53.18
2023-05-19T01:21:44.000Z,53.20
2023-05-19T01:22:43.945Z,53.28
2023-05-19T01:23:43.915Z,53.26
2023-05-19T01:24:43.937Z,53.39
2023-05-19T01:25:43.920Z,53.33
2023-05-19T01:26:43.919Z,53.44
2023-05-19T01:27:43.934Z,53.54
2023-05-19T01:28:43.927Z,53.53
2023-05-19T01:29:43.878Z,53.41
2023-05-19T01:30:43.886Z,53.55
2023-05-19T01:31:43.913Z,53.40
2023-05-19T01:32:43.865Z,53.34
2023-05-19T01:33:43.857Z,53.22
2023-05-19T01:34:43.825Z,53.16
2023-05-19T01:35:43.896Z,53.20
2023-05-19T01:36:43.823Z,53.15
2023-05-19T01:37:43.847Z,53.23
2023-05-19T01:38:43.836Z,53.50
2023-05-19T01:39:43.793Z,53.44
2023-05-19T01:40:43.850Z,53.59
2023-05-19T01:41:43.827Z,53.70
2023-05-19T01:42:43.834Z,53.66
2023-05-19T01:43:43.818Z,53.50
2023-05-19T01:44:43.790Z,53.45
2023-05-19T01:45:43.854Z,53.66
2023-05-19T01:46:43.790Z,53.69
2023-05-19T01:47:43.807Z,53.76
2023-05-19T01:48:43.766Z,53.90
2023-05-19T01:49:43.763Z,53.91
2023-05-19T01:50:43.811Z,53.73
2023-05-19T01:51:43.842Z,53.90
2023-05-19T01:52:43.883Z,53.77
2023-05-19T01:53:43.904Z,53.61
2023-05-19T01:54:43.942Z,53.63
2023-05-19T01:55:44.044Z,53.58
2023-05-19T01:56:44.024Z,53.62
2023-05-19T01:57:44.029Z,53.45
2023-05-19T01:58:44.108Z,53.58
2023-05-19T01:59:44.141Z,53.41
2023-05-19T02:00:44.196Z,53.48
2023-05-19T02:01:44.288Z,53.32
2023-05-19T02:02:44.302Z,53.32
2023-05-19T02:03:44.329Z,53.38
2023-05-19T02:04:44.549Z,53.39
2023-05-19T02:05:44.401Z,53.36
2023-05-19T02:06:44.457Z,53.24
2023-05-19T02:07:44.463Z,53.26
2023-05-19T02:08:44.553Z,53.29
2023-05-19T02:09:44.551Z,53.37
2023-05-19T02:10:44.623Z,53.34
2023-05-19T02:11:44.624Z,53.34
2023-05-19T02:12:44.700Z,53.33
2023-05-19T02:13:44.703Z,53.56
2023-05-19T02:14:44.766Z,53.43
2023-05-19T02:15:44.876Z,53.45
2023-05-19T02:16:44.941Z,53.63
2023-05-19T02:17:44.965Z,53.56
2023-05-19T02:18:44.946Z,53.61
2023-05-19T02:19:45.001Z,53.57
2023-05-19T02:20:45.055Z,53.82
2023-05-19T02:21:45.075Z,53.85
2023-05-19T02:22:45.133Z,53.90
2023-05-19T02:25:05.425Z,54.12
2023-05-19T02:26:05.378Z,54.17
2023-05-19T02:27:15.380Z,54.12
2023-05-19T02:28:15.423Z,54.03
2023-05-19T02:29:17.409Z,54.15
2023-05-19T02:30:05.325Z,54.07
2023-05-19T02:31:05.313Z,54.03
2023-05-19T02:34:44.708Z,54.16
2023-05-19T02:35:44.702Z,53.98
2023-05-19T02:36:44.900Z,54.06
2023-05-19T02:37:44.670Z,54.05
2023-05-19T02:38:44.667Z,53.98
2023-05-19T02:39:44.666Z,53.91
2023-05-19T02:40:44.725Z,54.00
2023-05-19T02:41:44.629Z,53.97
2023-05-19T02:42:44.633Z,53.92
2023-05-19T02:43:44.645Z,53.90
2023-05-19T02:44:44.661Z,53.95
2023-05-19T02:45:44.646Z,53.83
2023-05-19T02:46:44.677Z,53.95
2023-05-19T02:47:44.707Z,53.89
2023-05-19T02:48:44.621Z,53.96
2023-05-19T02:49:44.591Z,53.86
2023-05-19T02:50:44.626Z,53.95
2023-05-19T02:51:44.700Z,53.96
2023-05-19T02:52:44.766Z,53.94
2023-05-19T02:53:44.892Z,54.08
2023-05-19T02:54:44.832Z,54.01
2023-05-19T02:55:44.870Z,53.98
2023-05-19T02:56:44.983Z,53.98
2023-05-19T02:57:44.939Z,53.94
2023-05-19T02:58:44.969Z,53.88
2023-05-19T02:59:45.173Z,53.93
2023-05-19T03:00:45.103Z,53.97
2023-05-19T03:01:45.178Z,54.16
2023-05-19T03:02:45.248Z,54.07
2023-05-19T03:03:45.310Z,54.14
2023-05-19T03:04:45.296Z,54.09
2023-05-19T03:05:45.265Z,54.20
2023-05-19T03:06:45.383Z,54.13
2023-05-19T03:07:45.372Z,54.07
2023-05-19T03:08:45.440Z,54.04
2023-05-19T03:09:45.491Z,54.09
2023-05-19T03:10:45.602Z,54.12
2023-05-19T03:11:45.557Z,54.01
2023-05-19T03:12:45.587Z,54.09
2023-05-19T03:13:45.670Z,54.06
2023-05-19T03:14:45.715Z,54.14
2023-05-19T03:15:45.773Z,54.16
2023-05-19T03:16:45.940Z,54.01
2023-05-19T03:17:46.014Z,54.05
2023-05-19T03:18:45.883Z,54.00
2023-05-19T03:19:45.975Z,54.04
2023-05-19T03:20:46.041Z,54.16
2023-05-19T03:21:45.996Z,54.06
2023-05-19T03:22:46.102Z,54.11
2023-05-19T03:23:46.113Z,54.06
2023-05-19T03:24:46.145Z,54.06
2023-05-19T03:25:46.285Z,54.03
2023-05-19T03:26:46.381Z,54.09
2023-05-19T03:27:46.344Z,54.02
2023-05-19T03:28:46.395Z,54.06
2023-05-19T03:29:46.493Z,54.07
2023-05-19T03:30:46.446Z,53.94
2023-05-19T03:31:46.573Z,53.96
2023-05-19T03:32:46.713Z,54.10
2023-05-19T03:33:46.630Z,54.12
2023-05-19T03:34:46.733Z,54.05
2023-05-19T03:35:46.791Z,54.18
2023-05-19T03:36:46.840Z,54.17
2023-05-19T03:37:46.884Z,54.13
2023-05-19T03:38:47.100Z,54.20
2023-05-19T03:39:47.023Z,54.22
2023-05-19T03:40:47.083Z,54.13
2023-05-19T03:41:47.394Z,54.09
2023-05-19T03:42:47.451Z,54.05
2023-05-19T03:43:47.265Z,54.14
2023-05-19T03:44:47.322Z,54.16
2023-05-19T03:45:47.524Z,54.13
2023-05-19T03:46:47.426Z,54.19
2023-05-19T03:47:47.561Z,54.15
2023-05-19T03:48:47.579Z,54.11
2023-05-19T03:49:47.652Z,54.15
2023-05-19T03:50:47.674Z,54.28
2023-05-19T03:51:47.714Z,54.53
2023-05-19T03:52:47.837Z,54.45
2023-05-19T03:53:47.798Z,54.45
2023-05-19T03:54:47.795Z,54.72
2023-05-19T03:55:47.805Z,54.67
2023-05-19T03:56:47.803Z,54.57
2023-05-19T03:57:47.817Z,54.70
2023-05-19T03:58:47.867Z,54.61
2023-05-19T03:59:47.974Z,54.51
2023-05-19T04:00:47.900Z,54.59
2023-05-19T04:01:47.988Z,54.57
2023-05-19T04:02:48.076Z,54.49
2023-05-19T04:03:48.144Z,54.48
2023-05-19T04:04:48.171Z,54.45
2023-05-19T04:05:48.160Z,54.42
2023-05-19T04:06:48.189Z,54.44
2023-05-19T04:07:48.131Z,54.39
2023-05-19T04:08:48.158Z,54.51
2023-05-19T04:09:48.200Z,54.48
2023-05-19T04:10:48.231Z,54.46
2023-05-19T04:11:48.269Z,54.61
2023-05-19T04:12:48.252Z,54.66
2023-05-19T04:13:48.224Z,54.67
2023-05-19T04:14:48.276Z,54.61
2023-05-19T04:15:48.307Z,54.64
2023-05-19T04:16:48.351Z,54.67
2023-05-19T04:17:48.439Z,54.66
2023-05-19T04:18:48.491Z,54.62
2023-05-19T04:19:48.526Z,54.61
2023-05-19T04:20:48.520Z,54.67
2023-05-19T04:21:48.531Z,54.77
2023-05-19T04:22:48.575Z,54.81
2023-05-19T04:23:48.603Z,54.71
2023-05-19T04:24:48.546Z,54.77
2023-05-19T04:25:48.641Z,54.84
2023-05-19T04:26:48.552Z,54.85
2023-05-19T04:27:48.582Z,54.85
2023-05-19T04:28:48.705Z,54.80
2023-05-19T04:29:48.580Z,55.00
2023-05-19T04:30:48.629Z,54.86
2023-05-19T04:31:48.589Z,55.16
2023-05-19T04:32:48.645Z,55.11
2023-05-19T04:33:48.629Z,55.23
2023-05-19T04:34:48.622Z,55.13
2023-05-19T04:35:48.614Z,55.02
2023-05-19T04:36:49.494Z,55.08
2023-05-19T04:37:48.626Z,55.07
2023-05-19T04:38:48.725Z,55.22
2023-05-19T04:39:48.734Z,55.32
2023-05-19T04:40:48.823Z,55.08
2023-05-19T04:41:48.878Z,54.97
2023-05-19T04:42:48.880Z,55.05
2023-05-19T04:43:48.861Z,55.07
2023-05-19T04:45:14.713Z,55.10
2023-05-19T04:46:14.739Z,55.10
2023-05-19T04:47:14.655Z,55.25
2023-05-19T04:48:14.606Z,55.46
2023-05-19T04:49:14.600Z,55.47
2023-05-19T04:50:14.653Z,55.74
2023-05-19T04:51:14.894Z,55.72
2023-05-19T04:52:14.598Z,55.78
2023-05-19T04:53:14.612Z,56.03
2023-05-19T04:54:14.573Z,55.94
2023-05-19T04:55:14.583Z,55.96
2023-05-19T04:56:14.878Z,55.95
2023-05-19T04:57:14.572Z,55.96
2023-05-19T04:58:14.548Z,55.94
2023-05-19T04:59:14.543Z,56.15
2023-05-19T05:00:14.650Z,56.00
2023-05-19T05:01:14.518Z,55.74
2023-05-19T05:02:14.595Z,55.66
2023-05-19T05:03:14.680Z,55.81
2023-05-19T05:04:14.577Z,55.69
2023-05-19T05:05:14.527Z,55.73
2023-05-19T05:06:14.513Z,55.75
2023-05-19T05:07:14.455Z,56.03
2023-05-19T05:08:14.504Z,55.88
2023-05-19T05:09:14.467Z,55.74
2023-05-19T05:10:14.503Z,56.14
2023-05-19T05:11:14.444Z,56.08
2023-05-19T05:12:14.444Z,56.01
2023-05-19T05:13:14.466Z,56.13
2023-05-19T05:14:14.448Z,56.00
2023-05-19T05:15:14.473Z,55.89
2023-05-19T05:16:14.517Z,55.75
2023-05-19T05:17:14.448Z,55.61
2023-05-19T05:18:14.409Z,55.60
2023-05-19T05:19:14.453Z,55.48
2023-05-19T05:20:14.439Z,55.54
2023-05-19T05:21:14.450Z,55.72
2023-05-19T05:22:14.396Z,55.89
2023-05-19T05:23:14.390Z,55.88
2023-05-19T05:24:14.395Z,56.05
2023-05-19T05:25:14.406Z,56.00
2023-05-19T05:26:14.376Z,56.14
2023-05-19T05:27:14.424Z,56.18
2023-05-19T05:28:14.484Z,56.03
2023-05-19T05:29:14.541Z,56.28
2023-05-19T05:30:14.540Z,56.47
2023-05-19T05:31:14.612Z,56.59
2023-05-19T05:32:14.667Z,56.38
2023-05-19T05:33:14.867Z,56.56
2023-05-19T05:34:14.728Z,56.11
2023-05-19T05:35:14.787Z,56.55
2023-05-19T05:36:14.855Z,56.96
2023-05-19T05:37:15.405Z,56.68
2023-05-19T05:38:14.920Z,56.54
2023-05-19T05:39:15.058Z,55.95
2023-05-19T05:40:15.021Z,56.23
2023-05-19T05:41:15.450Z,56.45
2023-05-19T05:42:15.083Z,55.92
2023-05-19T05:43:15.155Z,55.49
2023-05-19T05:44:15.198Z,55.96
2023-05-19T05:45:15.261Z,55.85
2023-05-19T05:46:15.356Z,55.59
2023-05-19T05:47:15.339Z,56.59
2023-05-19T05:48:15.413Z,56.12
2023-05-19T05:49:15.433Z,55.86
2023-05-19T05:50:15.436Z,56.25
2023-05-19T05:51:15.915Z,56.15
2023-05-19T05:52:15.533Z,56.34
2023-05-19T05:53:15.596Z,56.01
2023-05-19T05:54:15.632Z,56.56
2023-05-19T05:55:15.692Z,56.17
2023-05-19T05:56:15.896Z,56.78
2023-05-19T05:57:15.755Z,56.46
2023-05-19T05:58:15.803Z,56.21
2023-05-19T05:59:15.881Z,56.14
2023-05-19T06:00:15.912Z,55.56
2023-05-19T06:01:15.927Z,55.28
2023-05-19T06:02:16.018Z,55.50
2023-05-19T06:03:16.135Z,55.40
2023-05-19T06:04:16.039Z,55.46
2023-05-19T06:05:16.111Z,55.27
2023-05-19T06:06:16.171Z,55.14
2023-05-19T06:07:16.195Z,55.22
2023-05-19T06:08:16.188Z,54.78
2023-05-19T06:09:16.251Z,54.89
2023-05-19T06:10:16.324Z,54.79
2023-05-19T06:11:16.325Z,54.38
2023-05-19T06:12:16.402Z,54.54
2023-05-19T06:13:16.415Z,55.29
2023-05-19T06:14:16.473Z,55.75
2023-05-19T06:15:16.540Z,55.77
2023-05-19T06:16:16.624Z,55.51
2023-05-19T06:17:16.551Z,55.35
2023-05-19T06:18:16.570Z,55.23
2023-05-19T06:19:16.581Z,54.98
2023-05-19T06:20:17.376Z,54.81
2023-05-19T06:21:16.633Z,54.66
2023-05-19T06:22:16.638Z,54.60
2023-05-19T06:23:16.688Z,54.39
2023-05-19T06:24:16.704Z,53.95
2023-05-19T06:25:16.709Z,54.23
2023-05-19T06:26:16.755Z,54.17
2023-05-19T06:27:16.854Z,54.01
2023-05-19T06:28:16.742Z,54.08
2023-05-19T06:29:16.817Z,54.35
2023-05-19T06:30:16.804Z,54.37
2023-05-19T06:31:16.878Z,54.18
2023-05-19T06:32:16.812Z,54.15
2023-05-19T06:33:16.837Z,53.98
2023-05-19T06:34:16.813Z,53.67
2023-05-19T06:35:16.827Z,53.80
2023-05-19T06:36:16.840Z,53.48
2023-05-19T06:37:16.967Z,53.59
2023-05-19T06:38:16.850Z,54.15
2023-05-19T06:39:16.859Z,53.95
2023-05-19T06:40:16.883Z,53.41
2023-05-19T06:41:16.881Z,53.37
2023-05-19T06:42:16.918Z,53.35
2023-05-19T06:43:16.852Z,53.51
2023-05-19T06:44:17.113Z,53.27
2023-05-19T06:45:16.899Z,53.56
2023-05-19T06:46:16.901Z,53.54
2023-05-19T06:47:16.928Z,53.13
2023-05-19T06:48:16.970Z,52.98
2023-05-19T06:49:16.883Z,52.95
2023-05-19T06:50:16.930Z,52.76
2023-05-19T06:51:16.898Z,52.60
2023-05-19T06:52:16.961Z,52.65
2023-05-19T06:53:17.054Z,52.33
2023-05-19T06:54:17.106Z,52.08
2023-05-19T06:55:17.117Z,52.26
2023-05-19T06:56:17.175Z,52.48
2023-05-19T06:57:17.214Z,52.38
2023-05-19T06:58:17.280Z,52.61
2023-05-19T06:59:17.313Z,52.35
2023-05-19T07:00:18.807Z,52.12
2023-05-19T07:01:17.504Z,51.97
2023-05-19T07:02:17.605Z,52.04
2023-05-19T07:03:17.597Z,52.01
2023-05-19T07:04:17.574Z,51.84
2023-05-19T07:05:17.556Z,52.07
2023-05-19T07:06:17.556Z,51.60
2023-05-19T07:07:17.585Z,51.28
2023-05-19T07:08:17.684Z,51.14
2023-05-19T07:09:17.695Z,51.18
2023-05-19T07:10:17.679Z,51.27
2023-05-19T07:11:17.672Z,51.25
2023-05-19T07:12:17.695Z,51.41
2023-05-19T07:13:17.721Z,51.41
2023-05-19T07:14:17.734Z,50.84
2023-05-19T07:15:17.728Z,51.22
2023-05-19T07:16:17.749Z,51.17
2023-05-19T07:17:17.733Z,51.28
2023-05-19T07:18:17.751Z,51.32
2023-05-19T07:19:17.767Z,51.53
2023-05-19T07:20:17.764Z,50.53
2023-05-19T07:21:17.755Z,51.12
2023-05-19T07:22:17.772Z,50.89
2023-05-19T07:23:17.781Z,51.10
2023-05-19T07:24:17.798Z,51.46
2023-05-19T07:25:17.798Z,51.30
2023-05-19T07:26:17.838Z,51.09
2023-05-19T07:27:17.917Z,51.45
2023-05-19T07:28:17.800Z,51.20
2023-05-19T07:29:17.875Z,51.43
2023-05-19T07:30:17.814Z,51.76
2023-05-19T07:31:18.048Z,51.93
2023-05-19T07:32:18.086Z,52.04
2023-05-19T07:33:18.045Z,51.98
2023-05-19T07:34:18.041Z,51.83
2023-05-19T07:35:18.058Z,51.83
2023-05-19T07:36:18.013Z,51.68
2023-05-19T07:37:18.435Z,51.24
2023-05-19T07:38:18.014Z,50.95
2023-05-19T07:39:18.079Z,50.79
2023-05-19T07:40:18.029Z,50.49
2023-05-19T07:41:18.052Z,50.72
2023-05-19T07:42:18.100Z,50.77
2023-05-19T07:43:18.088Z,50.58
2023-05-19T07:44:18.152Z,50.36
2023-05-19T07:45:18.108Z,50.96
2023-05-19T07:46:18.282Z,50.60
2023-05-19T07:47:18.236Z,50.55
2023-05-19T07:48:18.275Z,50.40
2023-05-19T07:49:18.297Z,50.79
2023-05-19T07:50:18.389Z,50.90
2023-05-19T07:51:18.404Z,51.23
2023-05-19T07:52:18.446Z,51.19
2023-05-19T07:53:18.509Z,51.28
2023-05-19T07:54:18.539Z,51.06
2023-05-19T07:55:18.596Z,51.28
2023-05-19T07:56:18.607Z,50.87
2023-05-19T07:57:18.914Z,50.97
2023-05-19T07:58:18.726Z,50.66
2023-05-19T07:59:18.764Z,51.02
2023-05-19T08:00:18.828Z,50.96
2023-05-19T08:01:18.886Z,50.90
2023-05-19T08:02:19.029Z,50.91
2023-05-19T08:03:19.211Z,50.47
2023-05-19T08:04:19.177Z,49.89
2023-05-19T08:05:19.124Z,49.77
2023-05-19T08:06:19.199Z,50.17
2023-05-19T08:07:19.302Z,49.87
2023-05-19T08:08:19.329Z,50.07
2023-05-19T08:09:19.348Z,49.90
2023-05-19T08:10:19.422Z,49.96
2023-05-19T08:11:19.527Z,50.22
2023-05-19T08:12:19.592Z,49.99
2023-05-19T08:13:19.651Z,49.84
2023-05-19T08:14:19.648Z,49.88
2023-05-19T08:15:19.710Z,49.57
2023-05-19T08:16:19.800Z,49.49
2023-05-19T08:17:19.845Z,48.88
2023-05-19T08:18:19.925Z,49.35
2023-05-19T08:19:20.081Z,49.51
2023-05-19T08:20:20.063Z,49.60
2023-05-19T08:21:20.042Z,49.27
2023-05-19T08:22:20.124Z,49.06
2023-05-19T08:23:20.113Z,49.05
2023-05-19T08:24:20.223Z,48.66
2023-05-19T08:25:20.222Z,48.79
2023-05-19T08:26:20.266Z,48.12
2023-05-19T08:27:20.306Z,48.31
2023-05-19T08:28:20.260Z,48.26
2023-05-19T08:29:20.312Z,48.43
2023-05-19T08:30:20.377Z,48.85
2023-05-19T08:31:20.350Z,48.97
2023-05-19T08:32:20.483Z,48.72
2023-05-19T08:33:20.431Z,48.17
2023-05-19T08:34:20.518Z,48.72
2023-05-19T08:35:20.527Z,48.84
2023-05-19T08:36:20.569Z,48.38
2023-05-19T08:37:20.990Z,48.03
2023-05-19T08:38:20.792Z,47.79
2023-05-19T08:39:20.688Z,47.13
2023-05-19T08:40:20.755Z,46.95
2023-05-19T08:41:20.837Z,46.70
2023-05-19T08:42:20.982Z,46.24
2023-05-19T08:43:20.848Z,46.37
2023-05-19T08:44:20.902Z,46.93
2023-05-19T08:45:20.885Z,46.29
2023-05-19T08:46:20.982Z,46.62
2023-05-19T08:47:20.942Z,46.31
2023-05-19T08:48:21.026Z,46.77
2023-05-19T08:49:21.349Z,46.71
2023-05-19T08:50:21.044Z,47.35
2023-05-19T08:51:21.077Z,47.52
2023-05-19T08:53:40.664Z,48.26
2023-05-19T08:54:40.773Z,48.41
2023-05-19T08:55:40.633Z,48.16
2023-05-19T08:56:50.868Z,48.11
2023-05-19T08:57:55.423Z,48.04
2023-05-19T08:58:56.631Z,47.50
2023-05-19T08:59:40.576Z,47.44
2023-05-19T09:00:52.627Z,47.53
2023-05-19T09:01:51.439Z,47.39
2023-05-19T09:03:00.815Z,47.68
2023-05-19T09:03:50.815Z,47.88
2023-05-19T09:07:29.986Z,47.74
2023-05-19T09:08:35.929Z,47.50
2023-05-19T09:09:19.860Z,46.80
2023-05-19T09:10:19.779Z,46.72
2023-05-19T09:11:19.787Z,47.07
2023-05-19T09:12:19.795Z,47.79
2023-05-19T09:13:19.765Z,48.03
2023-05-19T09:14:19.750Z,47.76
2023-05-19T09:15:19.739Z,47.87
2023-05-19T09:16:19.791Z,47.77
2023-05-19T09:17:19.788Z,47.76
2023-05-19T09:18:19.726Z,47.34
2023-05-19T09:19:19.708Z,47.43
2023-05-19T09:20:19.731Z,47.65
2023-05-19T09:21:19.707Z,47.16
2023-05-19T09:22:19.716Z,46.84
2023-05-19T09:23:19.691Z,47.17
2023-05-19T09:24:19.668Z,46.01
2023-05-19T09:25:19.660Z,47.06
2023-05-19T09:26:19.653Z,47.90
2023-05-19T09:27:19.657Z,47.38
2023-05-19T09:28:19.640Z,47.83
2023-05-19T09:29:19.647Z,47.76
2023-05-19T09:30:19.740Z,47.65
2023-05-19T09:31:19.590Z,47.19
2023-05-19T09:32:20.073Z,47.04
2023-05-19T09:33:19.638Z,47.32
2023-05-19T09:34:19.591Z,47.13
2023-05-19T09:35:19.622Z,47.15
2023-05-19T09:36:19.604Z,47.28
2023-05-19T09:37:19.612Z,46.85
2023-05-19T09:38:19.654Z,46.51
2023-05-19T09:39:19.557Z,46.32
2023-05-19T09:40:19.557Z,46.52
2023-05-19T09:41:19.557Z,46.25
2023-05-19T09:42:19.536Z,46.20
2023-05-19T09:43:19.632Z,45.83
2023-05-19T09:44:19.504Z,45.34
2023-05-19T09:45:20.519Z,45.38
2023-05-19T09:46:19.732Z,44.70
2023-05-19T09:47:19.671Z,44.87
2023-05-19T09:48:19.673Z,44.78
2023-05-19T09:49:19.696Z,45.02
2023-05-19T09:50:19.843Z,45.20
2023-05-19T09:51:19.810Z,45.30
2023-05-19T09:52:19.827Z,45.92
2023-05-19T09:53:19.934Z,45.53
2023-05-19T09:54:19.913Z,45.91
2023-05-19T09:55:19.954Z,45.56
2023-05-19T09:56:19.982Z,45.51
2023-05-19T09:57:19.988Z,45.56
2023-05-19T09:58:19.994Z,45.36
2023-05-19T09:59:20.015Z,45.66
2023-05-19T10:00:20.075Z,44.69
2023-05-19T10:01:20.143Z,44.79
2023-05-19T10:02:20.115Z,45.63
2023-05-19T10:03:20.201Z,45.39
2023-05-19T10:04:20.133Z,45.25
2023-05-19T10:05:20.394Z,44.63
2023-05-19T10:06:20.213Z,44.80
2023-05-19T10:07:20.539Z,44.27
2023-05-19T10:08:20.184Z,44.96
2023-05-19T10:09:20.220Z,43.98
2023-05-19T10:10:20.264Z,43.28
2023-05-19T10:11:20.276Z,44.61
2023-05-19T10:12:20.352Z,44.31
2023-05-19T10:13:20.377Z,44.09
2023-05-19T10:14:20.452Z,43.93
2023-05-19T10:15:22.175Z,43.09
2023-05-19T10:16:20.648Z,43.63
2023-05-19T10:17:20.702Z,44.33
2023-05-19T10:18:20.735Z,44.34
2023-05-19T10:19:20.824Z,45.28
2023-05-19T10:20:20.745Z,45.60
2023-05-19T10:21:20.760Z,45.70
2023-05-19T10:22:20.761Z,45.72
2023-05-19T10:23:20.779Z,45.71
2023-05-19T10:24:20.759Z,45.96
2023-05-19T10:25:20.804Z,45.70
2023-05-19T10:26:20.814Z,45.44
2023-05-19T10:27:20.951Z,45.29
2023-05-19T10:28:20.974Z,44.94
2023-05-19T10:29:21.036Z,45.85
2023-05-19T10:30:21.090Z,45.99
2023-05-19T10:31:21.054Z,45.08
2023-05-19T10:32:21.166Z,45.89
2023-05-19T10:33:21.181Z,46.26
2023-05-19T10:34:21.158Z,46.19
2023-05-19T10:35:21.238Z,46.23
2023-05-19T10:36:21.314Z,46.28
2023-05-19T10:37:21.612Z,46.42
2023-05-19T10:38:21.349Z,46.64
2023-05-19T10:39:21.384Z,46.31
2023-05-19T10:40:21.450Z,46.00
2023-05-19T10:41:21.471Z,46.53
2023-05-19T10:42:21.516Z,46.84
2023-05-19T10:43:21.547Z,46.73
2023-05-19T10:44:21.641Z,47.38
2023-05-19T10:45:21.669Z,47.20
2023-05-19T10:46:21.661Z,47.19
2023-05-19T10:47:21.743Z,46.49
2023-05-19T10:48:21.729Z,46.45
2023-05-19T10:49:21.786Z,46.47
2023-05-19T10:50:21.789Z,46.95
2023-05-19T10:51:21.761Z,47.01
2023-05-19T10:52:21.781Z,46.97
2023-05-19T10:53:21.888Z,47.12
2023-05-19T10:54:21.819Z,46.56
2023-05-19T10:55:21.801Z,47.06
2023-05-19T10:56:21.997Z,46.30
2023-05-19T10:57:21.830Z,46.53
2023-05-19T10:58:21.840Z,46.63
2023-05-19T10:59:21.850Z,45.68
2023-05-19T11:00:21.852Z,45.96
2023-05-19T11:01:21.947Z,45.43
2023-05-19T11:02:21.996Z,45.56
2023-05-19T11:03:22.070Z,45.77
2023-05-19T11:04:22.016Z,45.03
2023-05-19T11:05:22.052Z,44.91
2023-05-19T11:06:22.087Z,44.60
2023-05-19T11:07:22.134Z,44.26
2023-05-19T11:08:22.189Z,44.41
2023-05-19T11:09:31.085Z,44.80
2023-05-19T11:10:23.310Z,44.39
2023-05-19T11:11:23.310Z,44.55
2023-05-19T11:12:22.200Z,44.82
2023-05-19T11:13:22.614Z,44.81
2023-05-19T11:14:22.162Z,45.02
2023-05-19T11:15:22.229Z,44.92
2023-05-19T11:16:22.213Z,44.83
2023-05-19T11:17:22.607Z,44.46
2023-05-19T11:18:22.183Z,45.50
2023-05-19T11:19:22.299Z,45.21
2023-05-19T11:20:22.245Z,45.09
2023-05-19T11:21:22.311Z,45.38
2023-05-19T11:22:22.676Z,45.37
2023-05-19T11:23:22.455Z,45.46
2023-05-19T11:24:22.412Z,45.47
2023-05-19T11:25:22.501Z,45.47
2023-05-19T11:26:22.524Z,45.17
2023-05-19T11:27:23.126Z,44.85
2023-05-19T11:28:22.668Z,45.01
2023-05-19T11:29:22.674Z,44.89
2023-05-19T11:30:22.743Z,44.45
2023-05-19T11:31:22.798Z,44.65
2023-05-19T11:32:23.107Z,44.27
2023-05-19T11:33:22.861Z,44.39
2023-05-19T11:34:22.967Z,44.56
2023-05-19T11:35:22.902Z,44.34
2023-05-19T11:36:22.926Z,44.70
2023-05-19T11:37:23.004Z,45.05
2023-05-19T11:38:22.993Z,44.80
2023-05-19T11:39:23.138Z,44.78
2023-05-19T11:40:23.052Z,44.67
2023-05-19T11:41:23.070Z,44.46
2023-05-19T11:42:23.074Z,44.44
2023-05-19T11:43:23.052Z,44.20
2023-05-19T11:44:23.073Z,43.87
2023-05-19T11:45:23.085Z,43.91
2023-05-19T11:46:23.178Z,44.10
2023-05-19T11:47:23.202Z,44.30
2023-05-19T11:48:23.302Z,44.21
2023-05-19T11:49:23.218Z,43.68
2023-05-19T11:50:23.231Z,43.47
2023-05-19T11:51:23.217Z,43.62
2023-05-19T11:52:23.611Z,43.68
2023-05-19T11:53:23.301Z,43.38
2023-05-19T11:54:23.192Z,43.60
2023-05-19T11:55:23.214Z,43.41
2023-05-19T11:56:23.285Z,43.66
2023-05-19T11:57:23.279Z,43.62
2023-05-19T11:58:23.314Z,43.46
2023-05-19T11:59:23.285Z,43.80
2023-05-19T12:00:23.262Z,44.06
2023-05-19T12:01:23.289Z,43.92
2023-05-19T12:02:23.377Z,44.32
2023-05-19T12:03:23.431Z,43.81
2023-05-19T12:04:23.262Z,43.78
2023-05-19T12:05:23.419Z,43.55
2023-05-19T12:06:23.396Z,43.78
2023-05-19T12:07:23.600Z,43.61
2023-05-19T12:08:23.345Z,43.35
2023-05-19T12:09:23.349Z,43.40
2023-05-19T12:10:23.343Z,43.14
2023-05-19T12:11:23.352Z,43.26
2023-05-19T12:12:23.545Z,42.89
2023-05-19T12:13:23.376Z,42.49
2023-05-19T12:14:23.389Z,42.31
2023-05-19T12:15:23.408Z,42.14
2023-05-19T12:16:23.517Z,42.01
2023-05-19T12:17:23.483Z,42.06
2023-05-19T12:18:23.447Z,41.44
2023-05-19T12:19:23.624Z,41.57
2023-05-19T12:20:23.466Z,41.62
2023-05-19T12:21:23.534Z,41.65
2023-05-19T12:22:24.521Z,41.56
2023-05-19T12:23:23.505Z,41.57
2023-05-19T12:24:23.459Z,42.06
2023-05-19T12:25:23.460Z,42.05
2023-05-19T12:26:23.510Z,42.28
2023-05-19T12:27:23.459Z,42.34
2023-05-19T12:28:23.477Z,42.48
2023-05-19T12:29:23.449Z,42.70
2023-05-19T12:30:23.440Z,42.87
2023-05-19T12:31:23.477Z,43.14
2023-05-19T12:32:23.509Z,42.98
2023-05-19T12:33:23.395Z,42.73
2023-05-19T12:34:23.397Z,42.40
2023-05-19T12:35:23.394Z,42.17
2023-05-19T12:36:23.390Z,42.19
2023-05-19T12:37:23.427Z,41.88
2023-05-19T12:38:23.393Z,41.64
2023-05-19T12:39:23.404Z,40.26
2023-05-19T12:40:23.374Z,40.26
2023-05-19T12:41:23.357Z,40.01
2023-05-19T12:42:23.381Z,40.80
2023-05-19T12:43:23.348Z,41.06
2023-05-19T12:44:23.374Z,41.20
2023-05-19T12:45:23.339Z,41.58
2023-05-19T12:46:23.405Z,42.42
2023-05-19T12:47:23.400Z,42.51
2023-05-19T12:48:23.379Z,42.57
2023-05-19T12:49:23.421Z,42.66
2023-05-19T12:50:23.491Z,42.90
2023-05-19T12:51:23.467Z,42.08
2023-05-19T12:52:23.544Z,42.45
2023-05-19T12:53:23.465Z,41.99
2023-05-19T12:54:23.472Z,42.01
2023-05-19T12:55:23.481Z,41.71
2023-05-19T12:56:23.524Z,41.83
2023-05-19T12:57:23.628Z,41.88
2023-05-19T12:58:23.478Z,41.89
2023-05-19T12:59:34.719Z,41.43
2023-05-19T13:00:24.522Z,41.56
2023-05-19T13:01:38.067Z,41.28